createdAt,value
2023-04-25T00:00:58.446Z,697.00
2023-04-25T00:01:58.452Z,696.00
2023-04-25T00:02:57.592Z,697.00
2023-04-25T00:03:58.862Z,698.00
2023-04-25T00:04:58.578Z,699.00
2023-04-25T00:05:58.519Z,701.00
2023-04-25T00:06:58.404Z,704.00
2023-04-25T00:07:58.411Z,703.00
2023-04-25T00:08:58.410Z,701.00
2023-04-25T00:09:57.389Z,700.00
2023-04-25T00:10:58.374Z,700.00
2023-04-25T00:11:58.371Z,698.00
2023-04-25T00:12:58.460Z,695.00
2023-04-25T00:13:57.371Z,695.00
2023-04-25T00:14:58.371Z,694.00
2023-04-25T00:15:58.395Z,693.00
2023-04-25T00:16:57.328Z,692.00
2023-04-25T00:17:58.351Z,690.00
2023-04-25T00:18:58.335Z,689.00
2023-04-25T00:19:58.308Z,689.00
2023-04-25T00:20:58.309Z,690.00
2023-04-25T00:21:58.455Z,691.00
2023-04-25T00:22:57.373Z,694.00
2023-04-25T00:23:58.305Z,693.00
2023-04-25T00:24:58.277Z,694.00
2023-04-25T00:25:58.269Z,695.00
2023-04-25T00:26:57.268Z,694.00
2023-04-25T00:27:58.266Z,693.00
2023-04-25T00:28:58.278Z,693.00
2023-04-25T00:29:58.238Z,692.00
2023-04-25T00:30:58.241Z,692.00
2023-04-25T00:31:58.332Z,692.00
2023-04-25T00:32:57.272Z,693.00
2023-04-25T00:33:58.255Z,692.00
2023-04-25T00:34:58.207Z,691.00
2023-04-25T00:35:57.187Z,688.00
2023-04-25T00:36:57.179Z,689.00
2023-04-25T00:37:58.187Z,689.00
2023-04-25T00:38:58.202Z,689.00
2023-04-25T00:39:57.219Z,687.00
2023-04-25T00:40:58.158Z,689.00
2023-04-25T00:41:57.143Z,687.00
2023-04-25T00:42:57.165Z,684.00
2023-04-25T00:43:57.141Z,686.00
2023-04-25T00:44:58.156Z,686.00
2023-04-25T00:45:58.123Z,688.00
2023-04-25T00:46:57.169Z,688.00
2023-04-25T00:47:57.194Z,687.00
2023-04-25T00:48:58.099Z,687.00
2023-04-25T00:49:57.102Z,686.00
2023-04-25T00:50:57.116Z,686.00
2023-04-25T00:51:57.089Z,686.00
2023-04-25T00:52:57.073Z,684.00
2023-04-25T00:53:57.081Z,685.00
2023-04-25T00:54:58.066Z,686.00
2023-04-25T00:55:58.106Z,683.00
2023-04-25T00:56:58.032Z,685.00
2023-04-25T00:57:58.046Z,687.00
2023-04-25T00:58:58.025Z,687.00
2023-04-25T00:59:57.011Z,685.00
2023-04-25T01:00:58.081Z,685.00
2023-04-25T01:01:57.107Z,687.00
2023-04-25T01:02:57.140Z,686.00
2023-04-25T01:03:58.081Z,687.00
2023-04-25T01:04:58.000Z,685.00
2023-04-25T01:05:57.976Z,685.00
2023-04-25T01:06:56.991Z,683.00
2023-04-25T01:07:56.976Z,684.00
2023-04-25T01:08:58.016Z,684.00
2023-04-25T01:09:56.970Z,683.00
2023-04-25T01:10:57.956Z,682.00
2023-04-25T01:11:56.951Z,682.00
2023-04-25T01:12:57.965Z,683.00
2023-04-25T01:13:57.947Z,682.00
2023-04-25T01:14:57.915Z,682.00
2023-04-25T01:15:57.905Z,682.00
2023-04-25T01:16:58.112Z,682.00
2023-04-25T01:17:56.914Z,684.00
2023-04-25T01:18:56.905Z,681.00
2023-04-25T01:19:56.901Z,680.00
2023-04-25T01:20:56.874Z,678.00
2023-04-25T01:21:57.878Z,675.00
2023-04-25T01:22:57.943Z,677.00
2023-04-25T01:23:57.927Z,679.00
2023-04-25T01:24:56.915Z,678.00
2023-04-25T01:25:57.914Z,678.00
2023-04-25T01:26:57.943Z,678.00
2023-04-25T01:27:57.930Z,679.00
2023-04-25T01:28:57.955Z,680.00
2023-04-25T01:29:57.958Z,679.00
2023-04-25T01:30:56.939Z,677.00
2023-04-25T01:31:57.120Z,674.00
2023-04-25T01:32:57.029Z,676.00
2023-04-25T01:33:56.969Z,676.00
2023-04-25T01:34:56.959Z,674.00
2023-04-25T01:35:56.983Z,672.00
2023-04-25T01:36:57.969Z,671.00
2023-04-25T01:37:57.975Z,672.00
2023-04-25T01:38:56.978Z,674.00
2023-04-25T01:39:57.993Z,677.00
2023-04-25T01:40:57.994Z,678.00
2023-04-25T01:41:57.654Z,680.00
2023-04-25T01:42:57.069Z,679.00
2023-04-25T01:43:56.985Z,677.00
2023-04-25T01:44:58.000Z,675.00
2023-04-25T01:45:57.074Z,674.00
2023-04-25T01:46:58.042Z,671.00
2023-04-25T01:47:58.173Z,670.00
2023-04-25T01:48:57.048Z,668.00
2023-04-25T01:49:58.013Z,668.00
2023-04-25T01:50:58.042Z,671.00
2023-04-25T01:51:58.015Z,668.00
2023-04-25T01:52:58.021Z,667.00
2023-04-25T01:54:00.434Z,667.00
2023-04-25T01:54:58.046Z,667.00
2023-04-25T01:55:57.050Z,667.00
2023-04-25T01:56:57.046Z,670.00
2023-04-25T01:57:58.037Z,670.00
2023-04-25T01:58:57.997Z,673.00
2023-04-25T01:59:57.999Z,672.00
2023-04-25T02:00:58.004Z,672.00
2023-04-25T02:01:58.081Z,669.00
2023-04-25T02:02:58.081Z,670.00
2023-04-25T02:03:57.515Z,669.00
2023-04-25T02:04:57.998Z,669.00
2023-04-25T02:05:57.949Z,673.00
2023-04-25T02:06:56.939Z,674.00
2023-04-25T02:07:57.949Z,673.00
2023-04-25T02:08:57.939Z,670.00
2023-04-25T02:09:57.974Z,671.00
2023-04-25T02:10:57.925Z,673.00
2023-04-25T02:11:57.932Z,676.00
2023-04-25T02:12:56.913Z,676.00
2023-04-25T02:13:56.895Z,673.00
2023-04-25T02:14:57.929Z,670.00
2023-04-25T02:15:58.060Z,669.00
2023-04-25T02:16:58.190Z,667.00
2023-04-25T02:17:57.940Z,665.00
2023-04-25T02:18:56.879Z,664.00
2023-04-25T02:19:56.859Z,663.00
2023-04-25T02:20:57.879Z,663.00
2023-04-25T02:21:57.854Z,663.00
2023-04-25T02:22:56.838Z,663.00
2023-04-25T02:23:57.842Z,665.00
2023-04-25T02:24:57.829Z,663.00
2023-04-25T02:25:57.845Z,664.00
2023-04-25T02:26:57.828Z,663.00
2023-04-25T02:27:57.803Z,663.00
2023-04-25T02:28:57.805Z,663.00
2023-04-25T02:29:57.809Z,666.00
2023-04-25T02:30:56.834Z,668.00
2023-04-25T02:31:57.868Z,668.00
2023-04-25T02:32:57.834Z,666.00
2023-04-25T02:33:56.758Z,662.00
2023-04-25T02:34:57.787Z,660.00
2023-04-25T02:35:56.745Z,660.00
2023-04-25T02:36:57.788Z,663.00
2023-04-25T02:37:57.732Z,666.00
2023-04-25T02:38:57.818Z,665.00
2023-04-25T02:39:57.749Z,666.00
2023-04-25T02:40:57.707Z,664.00
2023-04-25T02:41:57.711Z,667.00
2023-04-25T02:42:57.784Z,666.00
2023-04-25T02:43:57.698Z,665.00
2023-04-25T02:44:57.705Z,666.00
2023-04-25T02:45:57.684Z,667.00
2023-04-25T02:46:57.671Z,665.00
2023-04-25T02:47:56.704Z,663.00
2023-04-25T02:48:56.662Z,664.00
2023-04-25T02:49:57.649Z,665.00
2023-04-25T02:50:56.747Z,664.00
2023-04-25T02:51:57.658Z,665.00
2023-04-25T02:52:56.653Z,662.00
2023-04-25T02:53:57.658Z,663.00
2023-04-25T02:54:57.650Z,661.00
2023-04-25T02:55:57.655Z,661.00
2023-04-25T02:56:57.611Z,659.00
2023-04-25T02:57:56.610Z,658.00
2023-04-25T02:58:56.587Z,658.00
2023-04-25T02:59:57.611Z,659.00
2023-04-25T03:00:56.611Z,661.00
2023-04-25T03:01:57.570Z,661.00
2023-04-25T03:02:57.646Z,659.00
2023-04-25T03:03:56.631Z,661.00
2023-04-25T03:04:56.541Z,662.00
2023-04-25T03:05:56.532Z,661.00
2023-04-25T03:06:57.549Z,661.00
2023-04-25T03:07:57.535Z,661.00
2023-04-25T03:08:57.534Z,663.00
2023-04-25T03:09:57.515Z,665.00
2023-04-25T03:10:56.519Z,669.00
2023-04-25T03:11:57.492Z,670.00
2023-04-25T03:12:56.491Z,672.00
2023-04-25T03:13:57.490Z,668.00
2023-04-25T03:14:56.489Z,667.00
2023-04-25T03:15:56.475Z,666.00
2023-04-25T03:16:57.550Z,665.00
2023-04-25T03:17:57.480Z,664.00
2023-04-25T03:18:56.433Z,662.00
2023-04-25T03:19:57.431Z,665.00
2023-04-25T03:20:57.434Z,666.00
2023-04-25T03:21:57.423Z,667.00
2023-04-25T03:22:57.419Z,665.00
2023-04-25T03:23:57.416Z,668.00
2023-04-25T03:24:57.433Z,670.00
2023-04-25T03:25:56.411Z,672.00
2023-04-25T03:26:56.431Z,674.00
2023-04-25T03:27:57.403Z,675.00
2023-04-25T03:28:56.614Z,676.00
2023-04-25T03:29:56.411Z,678.00
2023-04-25T03:30:57.382Z,681.00
2023-04-25T03:31:57.647Z,682.00
2023-04-25T03:32:57.378Z,683.00
2023-04-25T03:33:57.375Z,685.00
2023-04-25T03:34:57.352Z,686.00
2023-04-25T03:35:57.336Z,686.00
2023-04-25T03:36:57.358Z,687.00
2023-04-25T03:37:57.319Z,692.00
2023-04-25T03:38:56.307Z,692.00
2023-04-25T03:39:57.315Z,688.00
2023-04-25T03:40:57.373Z,687.00
2023-04-25T03:41:57.274Z,687.00
2023-04-25T03:42:57.264Z,686.00
2023-04-25T03:43:56.279Z,685.00
2023-04-25T03:44:56.267Z,683.00
2023-04-25T03:45:56.293Z,685.00
2023-04-25T03:46:56.264Z,685.00
2023-04-25T03:47:56.327Z,690.00
2023-04-25T03:48:56.238Z,689.00
2023-04-25T03:49:57.229Z,688.00
2023-04-25T03:50:57.221Z,689.00
2023-04-25T03:51:57.231Z,690.00
2023-04-25T03:52:57.232Z,690.00
2023-04-25T03:53:57.220Z,688.00
2023-04-25T03:54:56.298Z,687.00
2023-04-25T03:55:57.187Z,685.00
2023-04-25T03:56:56.193Z,682.00
2023-04-25T03:57:57.181Z,683.00
2023-04-25T03:58:57.185Z,681.00
2023-04-25T03:59:56.184Z,681.00
2023-04-25T04:00:57.220Z,680.00
2023-04-25T04:01:57.154Z,679.00
2023-04-25T04:02:56.263Z,678.00
2023-04-25T04:03:56.787Z,680.00
2023-04-25T04:04:57.240Z,681.00
2023-04-25T04:05:56.206Z,682.00
2023-04-25T04:06:57.122Z,682.00
2023-04-25T04:07:56.124Z,683.00
2023-04-25T04:08:57.094Z,684.00
2023-04-25T04:09:57.103Z,684.00
2023-04-25T04:10:56.094Z,681.00
2023-04-25T04:11:57.106Z,679.00
2023-04-25T04:12:56.129Z,678.00
2023-04-25T04:13:57.111Z,678.00
2023-04-25T04:14:57.115Z,678.00
2023-04-25T04:15:57.174Z,678.00
2023-04-25T04:16:57.134Z,679.00
2023-04-25T04:17:56.262Z,681.00
2023-04-25T04:18:56.177Z,680.00
2023-04-25T04:19:56.198Z,677.00
2023-04-25T04:20:56.243Z,676.00
2023-04-25T04:21:57.244Z,675.00
2023-04-25T04:22:57.258Z,675.00
2023-04-25T04:23:56.323Z,674.00
2023-04-25T04:24:57.321Z,675.00
2023-04-25T04:25:56.409Z,673.00
2023-04-25T04:26:56.340Z,670.00
2023-04-25T04:27:57.522Z,673.00
2023-04-25T04:28:57.337Z,679.00
2023-04-25T04:29:56.316Z,681.00
2023-04-25T04:30:57.342Z,681.00
2023-04-25T04:31:57.392Z,679.00
2023-04-25T04:32:57.476Z,681.00
2023-04-25T04:33:56.320Z,679.00
2023-04-25T04:34:57.328Z,676.00
2023-04-25T04:35:57.346Z,673.00
2023-04-25T04:36:57.351Z,672.00
2023-04-25T04:37:57.368Z,672.00
2023-04-25T04:38:57.422Z,675.00
2023-04-25T04:39:57.495Z,674.00
2023-04-25T04:40:57.501Z,676.00
2023-04-25T04:41:57.479Z,673.00
2023-04-25T04:42:56.455Z,673.00
2023-04-25T04:43:57.502Z,674.00
2023-04-25T04:44:57.477Z,673.00
2023-04-25T04:45:56.484Z,680.00
2023-04-25T04:46:56.549Z,677.00
2023-04-25T04:47:57.537Z,674.00
2023-04-25T04:48:56.526Z,676.00
2023-04-25T04:49:56.548Z,677.00
2023-04-25T04:50:57.567Z,673.00
2023-04-25T04:51:59.638Z,672.00
2023-04-25T04:52:57.568Z,671.00
2023-04-25T04:53:57.576Z,672.00
2023-04-25T04:54:57.564Z,671.00
2023-04-25T04:55:57.589Z,673.00
2023-04-25T04:56:56.547Z,674.00
2023-04-25T04:57:56.565Z,669.00
2023-04-25T04:58:57.556Z,669.00
2023-04-25T04:59:57.562Z,666.00
2023-04-25T05:00:56.558Z,663.00
2023-04-25T05:01:57.780Z,663.00
2023-04-25T05:02:57.663Z,664.00
2023-04-25T05:03:56.882Z,662.00
2023-04-25T05:04:57.875Z,660.00
2023-04-25T05:05:57.485Z,656.00
2023-04-25T05:06:57.498Z,656.00
2023-04-25T05:07:56.501Z,655.00
2023-04-25T05:08:56.467Z,655.00
2023-04-25T05:09:57.471Z,654.00
2023-04-25T05:10:57.485Z,653.00
2023-04-25T05:11:56.450Z,650.00
2023-04-25T05:12:57.490Z,648.00
2023-04-25T05:13:57.434Z,649.00
2023-04-25T05:14:56.441Z,650.00
2023-04-25T05:15:56.435Z,652.00
2023-04-25T05:16:57.520Z,653.00
2023-04-25T05:17:56.511Z,655.00
2023-04-25T05:18:56.648Z,654.00
2023-04-25T05:19:57.579Z,655.00
2023-04-25T05:20:56.510Z,653.00
2023-04-25T05:21:56.406Z,652.00
2023-04-25T05:22:57.429Z,654.00
2023-04-25T05:23:57.526Z,656.00
2023-04-25T05:24:57.459Z,655.00
2023-04-25T05:25:56.467Z,654.00
2023-04-25T05:26:57.493Z,658.00
2023-04-25T05:27:56.477Z,668.00
2023-04-25T05:28:56.503Z,670.00
2023-04-25T05:29:56.542Z,676.00
2023-04-25T05:30:57.594Z,680.00
2023-04-25T05:31:56.698Z,690.00
2023-04-25T05:32:56.632Z,697.00
2023-04-25T05:33:57.617Z,700.00
2023-04-25T05:34:57.665Z,702.00
2023-04-25T05:35:57.632Z,730.00
2023-04-25T05:36:56.735Z,734.00
2023-04-25T05:37:56.734Z,735.00
2023-04-25T05:38:57.769Z,736.00
2023-04-25T05:39:56.861Z,743.00
2023-04-25T05:40:57.852Z,746.00
2023-04-25T05:41:57.883Z,760.00
2023-04-25T05:42:56.944Z,774.00
2023-04-25T05:43:58.395Z,781.00
2023-04-25T05:44:58.069Z,803.00
2023-04-25T05:45:58.161Z,825.00
2023-04-25T05:46:57.906Z,820.00
2023-04-25T05:47:58.303Z,828.00
2023-04-25T05:48:57.212Z,685.00
2023-04-25T05:49:58.251Z,695.00
2023-04-25T05:50:58.441Z,583.00
2023-04-25T05:51:58.349Z,602.00
2023-04-25T05:52:58.349Z,717.00
2023-04-25T05:53:58.386Z,700.00
2023-04-25T05:54:57.409Z,808.00
2023-04-25T05:55:57.407Z,815.00
2023-04-25T05:56:58.432Z,841.00
2023-04-25T05:57:57.439Z,788.00
2023-04-25T05:58:58.405Z,768.00
2023-04-25T05:59:57.815Z,964.00
2023-04-25T06:00:57.897Z,989.00
2023-04-25T06:01:58.549Z,1119.00
2023-04-25T06:02:59.059Z,862.00
2023-04-25T06:03:58.969Z,936.00
2023-04-25T06:04:57.951Z,990.00
2023-04-25T06:05:59.014Z,976.00
2023-04-25T06:06:58.788Z,976.00
2023-04-25T06:07:58.752Z,981.00
2023-04-25T06:08:58.848Z,974.00
2023-04-25T06:09:57.764Z,968.00
2023-04-25T06:10:58.790Z,959.00
2023-04-25T06:11:58.911Z,954.00
2023-04-25T06:12:58.903Z,949.00
2023-04-25T06:13:58.984Z,947.00
2023-04-25T06:14:59.033Z,946.00
2023-04-25T06:15:59.112Z,944.00
2023-04-25T06:16:58.114Z,944.00
2023-04-25T06:17:58.253Z,941.00
2023-04-25T06:18:59.164Z,939.00
2023-04-25T06:19:59.198Z,1009.00
2023-04-25T06:20:58.230Z,993.00
2023-04-25T06:21:59.283Z,988.00
2023-04-25T06:22:58.283Z,996.00
2023-04-25T06:23:58.314Z,996.00
2023-04-25T06:24:59.547Z,989.00
2023-04-25T06:25:59.628Z,997.00
2023-04-25T06:26:58.476Z,1000.00
2023-04-25T06:27:58.541Z,999.00
2023-04-25T06:28:59.464Z,1032.00
2023-04-25T06:29:58.489Z,1064.00
2023-04-25T06:30:58.567Z,1046.00
2023-04-25T06:31:59.539Z,1034.00
2023-04-25T06:32:59.615Z,1029.00
2023-04-25T06:33:59.624Z,1093.00
2023-04-25T06:34:58.566Z,1028.00
2023-04-25T06:35:59.630Z,1028.00
2023-04-25T06:36:59.603Z,1021.00
2023-04-25T06:37:59.651Z,1009.00
2023-04-25T06:38:58.657Z,993.00
2023-04-25T06:39:58.752Z,978.00
2023-04-25T06:40:59.672Z,974.00
2023-04-25T06:41:59.098Z,978.00
2023-04-25T06:42:58.695Z,975.00
2023-04-25T06:43:59.697Z,964.00
2023-04-25T06:44:58.823Z,964.00
2023-04-25T06:45:59.730Z,973.00
2023-04-25T06:47:00.160Z,975.00
2023-04-25T06:47:59.894Z,973.00
2023-04-25T06:48:59.746Z,1058.00
2023-04-25T06:49:58.832Z,1005.00
2023-04-25T06:50:59.882Z,1008.00
2023-04-25T06:52:00.376Z,1064.00
2023-04-25T06:52:59.850Z,1181.00
2023-04-25T06:53:58.891Z,1321.00
2023-04-25T06:54:59.193Z,1530.00
2023-04-25T06:55:58.976Z,1633.00
2023-04-25T06:57:00.265Z,1712.00
2023-04-25T06:57:59.112Z,1716.00
2023-04-25T06:59:00.045Z,1764.00
2023-04-25T07:00:02.112Z,1803.00
2023-04-25T07:00:59.170Z,1817.00
2023-04-25T07:02:00.126Z,1819.00
2023-04-25T07:02:59.352Z,1837.00
2023-04-25T07:04:00.186Z,1872.00
2023-04-25T07:04:59.064Z,1851.00
2023-04-25T07:05:59.027Z,1815.00
2023-04-25T07:07:06.553Z,1603.00
2023-04-25T07:07:58.991Z,1563.00
2023-04-25T07:09:00.009Z,1582.00
2023-04-25T07:10:00.002Z,1475.00
2023-04-25T07:11:00.028Z,1457.00
2023-04-25T07:11:59.982Z,1444.00
2023-04-25T07:12:59.983Z,1396.00
2023-04-25T07:13:59.961Z,1324.00
2023-04-25T07:14:59.956Z,1326.00
2023-04-25T07:15:59.993Z,1328.00
2023-04-25T07:17:00.037Z,1289.00
2023-04-25T07:17:59.965Z,1248.00
2023-04-25T07:18:59.931Z,1270.00
2023-04-25T07:19:58.937Z,1244.00
2023-04-25T07:20:58.909Z,1227.00
2023-04-25T07:21:58.917Z,1222.00
2023-04-25T07:22:58.975Z,1212.00
2023-04-25T07:23:58.927Z,1197.00
2023-04-25T07:24:59.890Z,1142.00
2023-04-25T07:25:59.899Z,1146.00
2023-04-25T07:26:59.875Z,1128.00
2023-04-25T07:27:59.888Z,1131.00
2023-04-25T07:28:59.878Z,1113.00
2023-04-25T07:29:59.899Z,1103.00
2023-04-25T07:30:59.850Z,1091.00
2023-04-25T07:31:58.893Z,1076.00
2023-04-25T07:32:59.838Z,1078.00
2023-04-25T07:33:59.940Z,1071.00
2023-04-25T07:34:58.830Z,1066.00
2023-04-25T07:35:59.830Z,1072.00
2023-04-25T07:36:59.816Z,1064.00
2023-04-25T07:37:59.812Z,1069.00
2023-04-25T07:38:59.827Z,1067.00
2023-04-25T07:39:59.791Z,1182.00
2023-04-25T07:40:59.774Z,1144.00
2023-04-25T07:41:58.777Z,1081.00
2023-04-25T07:42:59.786Z,1073.00
2023-04-25T07:43:59.777Z,1071.00
2023-04-25T07:44:58.776Z,1059.00
2023-04-25T07:45:58.785Z,1056.00
2023-04-25T07:47:00.039Z,1221.00
2023-04-25T07:48:00.307Z,1148.00
2023-04-25T07:48:59.715Z,1159.00
2023-04-25T07:49:59.720Z,1132.00
2023-04-25T07:50:59.739Z,1031.00
2023-04-25T07:51:59.696Z,1152.00
2023-04-25T07:52:58.741Z,1190.00
2023-04-25T07:53:59.684Z,1320.00
2023-04-25T07:54:59.693Z,1424.00
2023-04-25T07:55:58.710Z,1408.00
2023-04-25T07:56:59.769Z,1444.00
2023-04-25T07:57:59.781Z,1453.00
2023-04-25T07:58:59.833Z,1464.00
2023-04-25T07:59:59.842Z,1580.00
2023-04-25T08:00:59.894Z,1451.00
2023-04-25T08:01:59.855Z,1810.00
2023-04-25T08:03:00.066Z,1670.00
2023-04-25T08:04:00.196Z,1560.00
2023-04-25T08:04:58.996Z,1612.00
2023-04-25T08:05:59.103Z,1492.00
2023-04-25T08:06:59.867Z,1496.00
2023-04-25T08:07:59.879Z,1504.00
2023-04-25T08:08:58.843Z,1465.00
2023-04-25T08:09:59.863Z,1399.00
2023-04-25T08:10:59.856Z,1400.00
2023-04-25T08:11:59.832Z,1384.00
2023-04-25T08:12:59.854Z,1399.00
2023-04-25T08:13:59.843Z,1364.00
2023-04-25T08:14:58.823Z,1361.00
2023-04-25T08:15:59.872Z,1355.00
2023-04-25T08:16:59.818Z,1348.00
2023-04-25T08:17:59.853Z,1339.00
2023-04-25T08:18:59.862Z,1325.00
2023-04-25T08:19:58.829Z,1315.00
2023-04-25T08:20:58.825Z,1299.00
2023-04-25T08:21:59.818Z,1284.00
2023-04-25T08:22:59.868Z,1269.00
2023-04-25T08:23:59.890Z,1256.00
2023-04-25T08:24:59.881Z,1241.00
2023-04-25T08:25:59.913Z,1227.00
2023-04-25T08:27:00.143Z,1216.00
2023-04-25T08:27:58.973Z,1200.00
2023-04-25T08:29:00.007Z,1189.00
2023-04-25T08:30:00.101Z,1177.00
2023-04-25T08:31:00.244Z,1169.00
2023-04-25T08:32:00.208Z,1164.00
2023-04-25T08:33:00.285Z,1167.00
2023-04-25T08:33:59.258Z,1196.00
2023-04-25T08:35:00.305Z,1204.00
2023-04-25T08:36:00.279Z,1215.00
2023-04-25T08:36:59.310Z,1247.00
2023-04-25T08:38:00.271Z,1287.00
2023-04-25T08:38:59.268Z,1294.00
2023-04-25T08:40:00.272Z,1295.00
2023-04-25T08:41:00.292Z,1286.00
2023-04-25T08:41:59.284Z,1375.00
2023-04-25T08:43:00.769Z,1697.00
2023-04-25T08:44:00.383Z,1839.00
2023-04-25T08:44:59.381Z,1968.00
2023-04-25T08:45:59.402Z,1942.00
2023-04-25T08:47:00.471Z,2815.00
2023-04-25T08:48:00.457Z,2570.00
2023-04-25T08:49:00.443Z,2440.00
2023-04-25T08:50:00.515Z,2114.00
2023-04-25T08:51:00.544Z,1766.00
2023-04-25T08:52:00.582Z,1702.00
2023-04-25T08:53:00.594Z,1227.00
2023-04-25T08:54:06.403Z,1369.00
2023-04-25T08:55:00.602Z,1305.00
2023-04-25T08:55:59.582Z,1584.00
2023-04-25T08:57:00.597Z,1666.00
2023-04-25T08:57:59.747Z,1674.00
2023-04-25T08:59:00.588Z,1609.00
2023-04-25T08:59:59.575Z,1553.00
2023-04-25T09:01:00.565Z,1545.00
2023-04-25T09:01:59.691Z,1597.00
2023-04-25T09:02:59.823Z,1581.00
2023-04-25T09:04:00.636Z,1565.00
2023-04-25T09:04:59.528Z,1562.00
2023-04-25T09:06:00.553Z,1580.00
2023-04-25T09:07:00.523Z,1587.00
2023-04-25T09:08:00.916Z,1541.00
2023-04-25T09:08:59.502Z,1513.00
2023-04-25T09:10:00.512Z,1488.00
2023-04-25T09:10:59.490Z,1481.00
2023-04-25T09:12:00.494Z,1473.00
2023-04-25T09:13:00.516Z,1463.00
2023-04-25T09:14:00.496Z,1461.00
2023-04-25T09:14:59.617Z,1453.00
2023-04-25T09:16:00.518Z,1442.00
2023-04-25T09:17:00.707Z,1430.00
2023-04-25T09:18:00.572Z,1415.00
2023-04-25T09:19:00.449Z,1405.00
2023-04-25T09:20:00.467Z,1338.00
2023-04-25T09:21:02.233Z,1354.00
2023-04-25T09:22:00.438Z,1362.00
2023-04-25T09:23:00.413Z,1364.00
2023-04-25T09:24:00.410Z,1360.00
2023-04-25T09:25:00.393Z,1359.00
2023-04-25T09:26:00.378Z,1339.00
2023-04-25T09:27:00.378Z,1315.00
2023-04-25T09:27:59.366Z,1292.00
2023-04-25T09:29:00.381Z,1283.00
2023-04-25T09:29:59.385Z,1269.00
2023-04-25T09:30:59.407Z,1258.00
2023-04-25T09:31:59.351Z,1252.00
2023-04-25T09:33:00.370Z,1256.00
2023-04-25T09:34:00.489Z,1256.00
2023-04-25T09:34:59.312Z,1262.00
2023-04-25T09:36:00.328Z,1259.00
2023-04-25T09:37:00.322Z,1255.00
2023-04-25T09:38:00.316Z,1272.00
2023-04-25T09:39:00.296Z,1270.00
2023-04-25T09:40:00.297Z,1272.00
2023-04-25T09:41:00.297Z,1272.00
2023-04-25T09:42:00.279Z,1267.00
2023-04-25T09:42:59.285Z,1256.00
2023-04-25T09:43:59.514Z,1239.00
2023-04-25T09:45:00.331Z,1212.00
2023-04-25T09:46:00.375Z,1193.00
2023-04-25T09:47:00.367Z,1394.00
2023-04-25T09:47:59.355Z,1395.00
2023-04-25T09:48:59.243Z,1251.00
2023-04-25T09:49:59.248Z,1164.00
2023-04-25T09:51:00.240Z,973.00
2023-04-25T09:51:59.218Z,1094.00
2023-04-25T09:53:00.252Z,1131.00
2023-04-25T09:54:00.194Z,1134.00
2023-04-25T09:55:00.180Z,1134.00
2023-04-25T09:56:00.173Z,1119.00
2023-04-25T09:56:59.187Z,1112.00
2023-04-25T09:58:00.205Z,1107.00
2023-04-25T09:59:00.191Z,1108.00
2023-04-25T10:00:00.225Z,1112.00
2023-04-25T10:00:59.181Z,1122.00
2023-04-25T10:02:00.174Z,1136.00
2023-04-25T10:02:59.299Z,1142.00
2023-04-25T10:04:00.513Z,1145.00
2023-04-25T10:04:59.171Z,1143.00
2023-04-25T10:05:59.134Z,1144.00
2023-04-25T10:06:59.223Z,1146.00
2023-04-25T10:08:00.140Z,1145.00
2023-04-25T10:09:00.139Z,1147.00
2023-04-25T10:09:59.084Z,1149.00
2023-04-25T10:10:59.091Z,1152.00
2023-04-25T10:12:00.111Z,1156.00
2023-04-25T10:13:00.113Z,1158.00
2023-04-25T10:14:00.094Z,1160.00
2023-04-25T10:15:00.098Z,1157.00
2023-04-25T10:16:00.057Z,1155.00
2023-04-25T10:16:59.049Z,1152.00
2023-04-25T10:18:00.160Z,1152.00
2023-04-25T10:18:59.052Z,1152.00
2023-04-25T10:20:00.024Z,1152.00
2023-04-25T10:20:59.021Z,1154.00
2023-04-25T10:22:00.135Z,1155.00
2023-04-25T10:23:00.014Z,1154.00
2023-04-25T10:23:59.993Z,1153.00
2023-04-25T10:24:59.037Z,1151.00
2023-04-25T10:26:00.091Z,1148.00
2023-04-25T10:26:59.092Z,1143.00
2023-04-25T10:28:00.182Z,1139.00
2023-04-25T10:28:59.191Z,1133.00
2023-04-25T10:29:59.253Z,1128.00
2023-04-25T10:30:59.366Z,1127.00
2023-04-25T10:32:00.497Z,1120.00
2023-04-25T10:33:00.436Z,1116.00
2023-04-25T10:34:00.445Z,1110.00
2023-04-25T10:35:00.562Z,1109.00
2023-04-25T10:36:00.541Z,1115.00
2023-04-25T10:36:59.525Z,1124.00
2023-04-25T10:38:00.597Z,1135.00
2023-04-25T10:38:59.508Z,1141.00
2023-04-25T10:40:00.519Z,1146.00
2023-04-25T10:40:59.503Z,1280.00
2023-04-25T10:41:59.551Z,1383.00
2023-04-25T10:42:59.506Z,1457.00
2023-04-25T10:44:00.822Z,1494.00
2023-04-25T10:45:00.523Z,1496.00
2023-04-25T10:45:59.532Z,1510.00
2023-04-25T10:47:00.661Z,1594.00
2023-04-25T10:48:00.579Z,1612.00
2023-04-25T10:49:00.545Z,1606.00
2023-04-25T10:50:00.620Z,1598.00
2023-04-25T10:51:00.670Z,1591.00
2023-04-25T10:51:59.678Z,1576.00
2023-04-25T10:53:00.804Z,1567.00
2023-04-25T10:54:00.794Z,1503.00
2023-04-25T10:55:00.891Z,1494.00
2023-04-25T10:56:00.905Z,1479.00
2023-04-25T10:56:59.972Z,1464.00
2023-04-25T10:58:00.018Z,1455.00
2023-04-25T10:59:00.009Z,1444.00
2023-04-25T11:00:01.038Z,1443.00
2023-04-25T11:01:01.124Z,1445.00
2023-04-25T11:02:01.250Z,1436.00
2023-04-25T11:03:00.353Z,1419.00
2023-04-25T11:04:00.502Z,1333.00
2023-04-25T11:05:00.236Z,1311.00
2023-04-25T11:06:01.260Z,1293.00
2023-04-25T11:07:06.372Z,1280.00
2023-04-25T11:08:07.729Z,1271.00
2023-04-25T11:09:01.304Z,1262.00
2023-04-25T11:10:01.314Z,1260.00
2023-04-25T11:11:01.277Z,1265.00
2023-04-25T11:12:01.259Z,1272.00
2023-04-25T11:13:01.266Z,1288.00
2023-04-25T11:14:00.252Z,1286.00
2023-04-25T11:15:01.263Z,1281.00
2023-04-25T11:16:07.549Z,1288.00
2023-04-25T11:17:01.454Z,1271.00
2023-04-25T11:18:00.343Z,1335.00
2023-04-25T11:19:00.236Z,1302.00
2023-04-25T11:20:01.204Z,1323.00
2023-04-25T11:21:01.215Z,1401.00
2023-04-25T11:22:00.198Z,1395.00
2023-04-25T11:23:00.229Z,1375.00
2023-04-25T11:24:01.186Z,1399.00
2023-04-25T11:25:01.192Z,1412.00
2023-04-25T11:26:00.173Z,1442.00
2023-04-25T11:27:01.163Z,1460.00
2023-04-25T11:28:01.159Z,1462.00
2023-04-25T11:29:01.140Z,1441.00
2023-04-25T11:30:00.335Z,1442.00
2023-04-25T11:31:01.166Z,1455.00
2023-04-25T11:32:00.206Z,1398.00
2023-04-25T11:33:00.159Z,1403.00
2023-04-25T11:34:01.139Z,1313.00
2023-04-25T11:35:01.113Z,1442.00
2023-04-25T11:36:01.112Z,1426.00
2023-04-25T11:37:01.109Z,1329.00
2023-04-25T11:38:01.087Z,1344.00
2023-04-25T11:39:01.320Z,1294.00
2023-04-25T11:40:01.111Z,1291.00
2023-04-25T11:41:00.074Z,1288.00
2023-04-25T11:42:01.434Z,1295.00
2023-04-25T11:43:00.065Z,1303.00
2023-04-25T11:44:00.044Z,1298.00
2023-04-25T11:45:01.047Z,1287.00
2023-04-25T11:46:00.189Z,1279.00
2023-04-25T11:47:01.177Z,1269.00
2023-04-25T11:48:01.294Z,1255.00
2023-04-25T11:49:00.284Z,1239.00
2023-04-25T11:50:01.351Z,1228.00
2023-04-25T11:51:00.412Z,1223.00
2023-04-25T11:52:00.484Z,1216.00
2023-04-25T11:53:00.538Z,1199.00
2023-04-25T11:54:00.585Z,1189.00
2023-04-25T11:55:01.723Z,1185.00
2023-04-25T11:56:01.712Z,1179.00
2023-04-25T11:57:00.766Z,1170.00
2023-04-25T11:58:01.829Z,1160.00
2023-04-25T11:59:01.936Z,1154.00
2023-04-25T12:00:01.946Z,1146.00
2023-04-25T12:01:01.030Z,1134.00
2023-04-25T12:02:01.061Z,1130.00
2023-04-25T12:03:01.212Z,1128.00
2023-04-25T12:04:01.355Z,1127.00
2023-04-25T12:05:15.840Z,1124.00
2023-04-25T12:06:02.402Z,1120.00
2023-04-25T12:07:01.354Z,1116.00
2023-04-25T12:08:01.195Z,1114.00
2023-04-25T12:09:02.153Z,1108.00
2023-04-25T12:10:02.378Z,1103.00
2023-04-25T12:11:02.172Z,1101.00
2023-04-25T12:12:02.130Z,1097.00
2023-04-25T12:13:01.125Z,1094.00
2023-04-25T12:14:01.126Z,1089.00
2023-04-25T12:15:01.137Z,1084.00
2023-04-25T12:16:01.194Z,1081.00
2023-04-25T12:17:02.223Z,1077.00
2023-04-25T12:18:01.276Z,1073.00